createdAt,value
2019-01-15T00:01:15.731Z,93.97
2019-01-15T00:03:44.381Z,94.30
2019-01-15T00:06:12.994Z,94.34
2019-01-15T00:08:42.803Z,94.46
2019-01-15T00:11:11.236Z,94.56
2019-01-15T00:13:40.677Z,94.50
2019-01-15T00:16:09.362Z,94.41
2019-01-15T00:18:41.405Z,94.38
2019-01-15T00:21:11.061Z,94.32
2019-01-15T00:23:42.333Z,94.21
2019-01-15T00:26:11.554Z,94.14
2019-01-15T00:28:40.621Z,93.95
2019-01-15T00:31:09.196Z,93.91
2019-01-15T00:33:38.157Z,94.11
2019-01-15T00:36:06.965Z,94.09
2019-01-15T00:38:35.653Z,94.26
2019-01-15T00:41:04.243Z,94.47
2019-01-15T00:43:33.905Z,94.45
2019-01-15T00:46:02.408Z,94.59
2019-01-15T00:48:31.291Z,94.43
2019-01-15T00:50:59.758Z,94.35
2019-01-15T00:53:28.741Z,94.50
2019-01-15T00:55:57.922Z,94.72
2019-01-15T00:58:28.326Z,94.68
2019-01-15T01:00:58.170Z,94.62
2019-01-15T01:03:26.895Z,94.17
2019-01-15T01:05:55.535Z,93.89
2019-01-15T01:08:24.360Z,94.00
2019-01-15T01:10:55.546Z,93.93
2019-01-15T01:13:24.200Z,93.85
2019-01-15T01:15:52.805Z,93.74
2019-01-15T01:18:22.868Z,93.69
2019-01-15T01:20:51.593Z,93.60
2019-01-15T01:23:19.972Z,93.45
2019-01-15T01:25:51.152Z,93.43
2019-01-15T01:28:20.095Z,93.07
2019-01-15T01:30:49.882Z,93.07
2019-01-15T01:33:19.348Z,93.06
2019-01-15T01:35:50.843Z,93.04
2019-01-15T01:38:21.328Z,93.04
2019-01-15T01:40:50.147Z,93.21
2019-01-15T01:43:18.643Z,93.21
2019-01-15T01:45:48.296Z,93.20
2019-01-15T01:48:17.194Z,93.08
2019-01-15T01:50:48.277Z,92.98
2019-01-15T01:53:17.637Z,93.08
2019-01-15T01:55:46.415Z,92.98
2019-01-15T01:58:14.931Z,93.17
2019-01-15T02:00:44.178Z,93.28
2019-01-15T02:03:16.328Z,93.38
2019-01-15T02:05:47.966Z,93.28
2019-01-15T02:08:16.690Z,93.24
2019-01-15T02:10:44.943Z,92.92
2019-01-15T02:13:13.434Z,92.88
2019-01-15T02:15:42.092Z,93.00
2019-01-15T02:18:11.729Z,93.00
2019-01-15T02:20:41.478Z,92.64
2019-01-15T02:23:10.430Z,92.60
2019-01-15T02:25:42.161Z,92.88
2019-01-15T02:28:12.680Z,93.04
2019-01-15T02:30:45.690Z,93.10
2019-01-15T02:33:14.419Z,93.25
2019-01-15T02:35:43.818Z,93.28
2019-01-15T02:38:12.514Z,93.30
2019-01-15T02:40:41.310Z,93.21
2019-01-15T02:43:10.186Z,93.22
2019-01-15T02:45:41.420Z,93.22
2019-01-15T02:48:09.767Z,93.38
2019-01-15T02:50:42.046Z,93.38
2019-01-15T02:53:10.606Z,93.23
2019-01-15T02:55:40.345Z,93.11
2019-01-15T02:58:10.040Z,92.95
2019-01-15T03:00:39.941Z,92.59
2019-01-15T03:03:09.337Z,92.59
2019-01-15T03:05:38.541Z,92.50
2019-01-15T03:08:07.209Z,92.44
2019-01-15T03:10:36.350Z,92.33
2019-01-15T03:13:05.119Z,92.35
2019-01-15T03:15:33.715Z,92.22
2019-01-15T03:18:03.396Z,92.48
2019-01-15T03:20:32.893Z,92.37
2019-01-15T03:23:02.807Z,92.41
2019-01-15T03:25:31.444Z,92.40
2019-01-15T03:28:01.752Z,92.35
2019-01-15T03:30:30.911Z,92.48
2019-01-15T03:33:00.727Z,92.62
2019-01-15T03:35:29.878Z,92.59
2019-01-15T03:37:58.419Z,92.72
2019-01-15T03:40:27.213Z,92.72
2019-01-15T03:43:03.167Z,92.69
2019-01-15T03:45:27.368Z,92.52
2019-01-15T03:47:56.000Z,92.66
2019-01-15T03:50:24.498Z,92.68
2019-01-15T03:52:53.954Z,92.72
2019-01-15T03:55:23.273Z,92.74
2019-01-15T03:57:52.199Z,92.80
2019-01-15T04:00:22.795Z,92.77
2019-01-15T04:02:56.391Z,92.46
2019-01-15T04:05:25.449Z,92.46
2019-01-15T04:07:56.042Z,92.49
2019-01-15T04:10:25.808Z,92.27
2019-01-15T04:12:54.210Z,92.27
2019-01-15T04:15:23.670Z,92.27
2019-01-15T04:17:55.364Z,92.43
2019-01-15T04:20:24.410Z,92.51
2019-01-15T04:22:55.873Z,92.34
2019-01-15T04:25:24.592Z,92.36
2019-01-15T04:27:53.052Z,92.36
2019-01-15T04:30:22.916Z,92.25
2019-01-15T04:32:51.896Z,91.99
2019-01-15T04:35:20.820Z,92.03
2019-01-15T04:37:49.883Z,92.03
2019-01-15T04:40:20.030Z,91.93
2019-01-15T04:42:49.218Z,91.76
2019-01-15T04:45:19.840Z,91.67
2019-01-15T04:47:48.345Z,91.64
2019-01-15T04:50:16.908Z,91.59
2019-01-15T04:52:51.288Z,91.38
2019-01-15T04:55:19.801Z,90.98
2019-01-15T04:57:49.696Z,91.04
2019-01-15T05:00:19.436Z,91.05
2019-01-15T05:02:49.013Z,91.04
2019-01-15T05:05:17.800Z,90.96
2019-01-15T05:07:50.198Z,91.05
2019-01-15T05:10:19.348Z,90.85
2019-01-15T05:12:51.326Z,90.97
2019-01-15T05:19:31.510Z,90.92
2019-01-15T05:22:01.230Z,91.20
2019-01-15T05:24:31.484Z,91.34
2019-01-15T05:27:00.889Z,91.38
2019-01-15T05:29:30.687Z,91.48
2019-01-15T05:31:59.234Z,91.57
2019-01-15T05:34:28.787Z,91.80
2019-01-15T05:36:58.184Z,91.87
2019-01-15T05:39:28.299Z,92.01
2019-01-15T05:41:56.684Z,92.27
2019-01-15T05:44:28.382Z,92.49
2019-01-15T05:46:57.226Z,92.54
2019-01-15T05:49:26.615Z,92.88
2019-01-15T05:51:55.176Z,92.74
2019-01-15T05:54:23.988Z,92.89
2019-01-15T05:56:52.822Z,93.02
2019-01-15T05:59:24.306Z,93.13
2019-01-15T06:01:54.580Z,93.11
2019-01-15T06:04:23.647Z,93.09
2019-01-15T06:06:55.172Z,93.30
2019-01-15T06:09:24.318Z,93.35
2019-01-15T06:11:55.603Z,93.22
2019-01-15T06:14:25.372Z,93.52
2019-01-15T06:16:54.669Z,93.52
2019-01-15T06:19:26.474Z,93.58
2019-01-15T06:21:57.217Z,93.70
2019-01-15T06:24:38.442Z,93.62
2019-01-15T06:27:21.382Z,93.64
2019-01-15T06:29:51.718Z,93.54
2019-01-15T06:32:22.671Z,93.58
2019-01-15T06:34:52.699Z,93.63
2019-01-15T06:37:21.873Z,93.71
2019-01-15T06:39:51.105Z,93.64
2019-01-15T06:42:22.255Z,93.52
2019-01-15T06:44:54.617Z,93.54
2019-01-15T06:47:24.045Z,93.77
2019-01-15T06:49:52.553Z,93.73
2019-01-15T06:52:21.085Z,93.67
2019-01-15T06:54:50.390Z,93.71
2019-01-15T06:57:18.974Z,93.58
2019-01-15T06:59:47.464Z,93.63
2019-01-15T07:02:18.003Z,93.74
2019-01-15T07:04:46.938Z,93.68
2019-01-15T07:07:16.548Z,93.65
2019-01-15T07:09:45.503Z,93.57
2019-01-15T07:12:14.565Z,93.65
2019-01-15T07:14:44.729Z,93.73
2019-01-15T07:17:13.977Z,93.71
2019-01-15T07:19:43.898Z,93.68
2019-01-15T07:22:14.133Z,93.82
2019-01-15T07:24:46.638Z,93.77
2019-01-15T07:27:16.206Z,93.82
2019-01-15T07:29:45.816Z,93.89
2019-01-15T07:32:14.986Z,93.92
2019-01-15T07:34:44.723Z,93.71
2019-01-15T07:37:14.744Z,93.74
2019-01-15T07:39:43.486Z,93.76
2019-01-15T07:42:13.031Z,93.63
2019-01-15T07:44:44.520Z,93.52
2019-01-15T07:47:17.704Z,93.34
2019-01-15T07:49:47.249Z,93.39
2019-01-15T07:52:18.564Z,93.35
2019-01-15T07:54:47.175Z,93.15
2019-01-15T07:57:19.491Z,93.16
2019-01-15T07:59:48.896Z,93.24
2019-01-15T08:02:19.079Z,93.27
2019-01-15T08:04:52.240Z,93.09
2019-01-15T08:07:21.414Z,93.04
2019-01-15T08:09:51.117Z,92.93
2019-01-15T08:12:19.781Z,92.94
2019-01-15T08:14:49.381Z,92.96
2019-01-15T08:17:17.753Z,92.97
2019-01-15T08:19:46.678Z,92.83
2019-01-15T08:22:16.117Z,92.65
2019-01-15T08:24:45.276Z,92.87
2019-01-15T08:27:14.150Z,92.67
2019-01-15T08:29:43.208Z,92.64
2019-01-15T08:32:15.128Z,92.52
2019-01-15T08:34:44.210Z,92.59
2019-01-15T08:37:14.143Z,92.47
2019-01-15T08:39:45.685Z,92.48
2019-01-15T08:42:14.410Z,92.59
2019-01-15T08:44:44.909Z,92.52
2019-01-15T08:47:14.168Z,92.45
2019-01-15T08:49:47.619Z,92.31
2019-01-15T08:52:16.861Z,92.39
2019-01-15T08:54:45.355Z,92.41
2019-01-15T08:57:14.340Z,92.15
2019-01-15T08:59:43.433Z,92.31
2019-01-15T09:02:13.739Z,92.13
2019-01-15T09:04:42.927Z,91.85
2019-01-15T09:07:11.444Z,91.84
2019-01-15T09:09:39.746Z,91.68
2019-01-15T09:12:08.394Z,91.74
2019-01-15T09:14:37.210Z,91.86
2019-01-15T09:17:11.019Z,92.01
2019-01-15T09:19:37.538Z,91.77
2019-01-15T09:22:07.172Z,91.77
2019-01-15T09:24:35.628Z,91.94
2019-01-15T09:27:04.377Z,91.94
2019-01-15T09:29:35.694Z,91.74
2019-01-15T09:32:06.458Z,91.66
2019-01-15T09:34:35.204Z,91.55
2019-01-15T09:37:09.163Z,91.64
2019-01-15T09:39:45.607Z,91.65
2019-01-15T09:42:21.705Z,91.50
2019-01-15T09:44:51.817Z,91.55
2019-01-15T09:47:20.324Z,91.05
2019-01-15T09:49:48.934Z,90.84
2019-01-15T09:52:20.444Z,90.87
2019-01-15T09:54:48.612Z,90.93
2019-01-15T09:57:17.654Z,90.68
2019-01-15T09:59:46.873Z,90.60
2019-01-15T10:02:15.609Z,90.74
2019-01-15T10:04:45.285Z,90.71
2019-01-15T10:07:14.886Z,90.65
2019-01-15T10:09:45.349Z,90.71
2019-01-15T10:12:14.031Z,90.60
2019-01-15T10:14:43.420Z,90.71
2019-01-15T10:17:12.236Z,90.79
2019-01-15T10:19:40.586Z,90.81
2019-01-15T10:22:09.224Z,90.54
2019-01-15T10:24:38.547Z,90.29
2019-01-15T10:27:07.602Z,90.14
2019-01-15T10:29:37.029Z,90.08
2019-01-15T10:32:37.575Z,89.95
2019-01-15T10:35:20.923Z,89.90
2019-01-15T10:37:50.826Z,89.59
2019-01-15T10:40:19.697Z,89.93
2019-01-15T10:42:48.498Z,89.84
2019-01-15T10:45:17.828Z,89.40
2019-01-15T10:47:47.534Z,89.38
2019-01-15T10:50:20.900Z,89.31
2019-01-15T10:52:49.497Z,89.48
2019-01-15T10:55:18.801Z,89.42
2019-01-15T10:57:47.153Z,89.35
2019-01-15T11:00:15.974Z,89.08
2019-01-15T11:02:45.049Z,88.93
2019-01-15T11:05:14.251Z,88.76
2019-01-15T11:07:44.330Z,88.51
2019-01-15T11:10:14.311Z,88.60
2019-01-15T11:12:45.740Z,88.12
2019-01-15T11:15:14.372Z,88.23
2019-01-15T11:17:42.849Z,87.99
2019-01-15T11:20:13.084Z,87.91
2019-01-15T11:22:41.581Z,87.74
2019-01-15T11:25:11.460Z,87.68
2019-01-15T11:27:40.829Z,87.58
2019-01-15T11:30:10.957Z,87.27
2019-01-15T11:32:40.747Z,86.68
2019-01-15T11:35:10.873Z,86.68
2019-01-15T11:37:40.787Z,86.78
2019-01-15T11:40:09.348Z,86.84
2019-01-15T11:42:37.813Z,86.51
2019-01-15T11:45:07.979Z,86.29
2019-01-15T11:47:36.421Z,86.00
2019-01-15T11:50:11.743Z,85.81
2019-01-15T11:52:40.151Z,85.91
2019-01-15T11:55:10.678Z,86.13
2019-01-15T11:57:39.447Z,85.93
2019-01-15T12:00:14.108Z,85.66
2019-01-15T12:02:54.259Z,85.29
2019-01-15T12:05:45.212Z,85.26
2019-01-15T12:08:33.534Z,85.39
2019-01-15T12:11:21.040Z,84.46
2019-01-15T12:14:19.054Z,84.13
2019-01-15T12:17:08.126Z,84.29
2019-01-15T12:20:16.423Z,84.01
2019-01-15T12:23:11.492Z,84.33
2019-01-15T12:26:03.100Z,84.31
2019-01-15T12:28:46.196Z,83.83
2019-01-15T12:31:34.623Z,83.50
2019-01-15T12:34:23.044Z,83.42
2019-01-15T12:37:14.315Z,83.39
2019-01-15T12:40:00.006Z,84.05
2019-01-15T12:42:47.668Z,84.41
2019-01-15T12:45:45.611Z,84.34
2019-01-15T12:48:43.887Z,84.42
2019-01-15T12:51:42.180Z,84.40
2019-01-15T12:54:26.970Z,84.82
2019-01-15T12:57:31.253Z,86.82
2019-01-15T13:00:35.338Z,87.47
2019-01-15T13:03:33.362Z,87.02
2019-01-15T13:06:40.282Z,86.40
2019-01-15T13:09:45.414Z,86.20
2019-01-15T13:12:36.379Z,86.74
2019-01-15T13:15:34.685Z,87.41
2019-01-15T13:18:23.218Z,87.46
2019-01-15T13:21:10.484Z,87.42
2019-01-15T13:24:00.208Z,87.65
2019-01-15T13:26:48.615Z,87.40
2019-01-15T13:29:56.467Z,87.62
2019-01-15T13:32:45.538Z,87.61
2019-01-15T13:35:46.167Z,87.76
2019-01-15T13:38:41.306Z,87.47
2019-01-15T13:41:23.047Z,87.09
2019-01-15T13:44:11.616Z,87.30
2019-01-15T13:47:10.222Z,87.41
2019-01-15T13:49:58.945Z,87.31
2019-01-15T13:52:46.200Z,87.44
2019-01-15T13:55:35.014Z,87.62
2019-01-15T13:58:12.445Z,87.73
2019-01-15T14:00:54.566Z,87.27
2019-01-15T14:03:46.394Z,87.36
2019-01-15T14:06:37.526Z,87.59
2019-01-15T14:09:32.877Z,87.57
2019-01-15T14:12:36.944Z,87.76
2019-01-15T14:15:41.170Z,88.12
2019-01-15T14:18:34.036Z,88.43
2019-01-15T14:21:23.473Z,88.74
2019-01-15T14:24:15.520Z,88.78
2019-01-15T14:27:09.106Z,88.98
2019-01-15T14:30:04.588Z,88.85
2019-01-15T14:32:58.606Z,88.86
2019-01-15T14:35:45.962Z,88.95
2019-01-15T14:38:53.097Z,89.18
2019-01-15T14:41:40.145Z,89.38
2019-01-15T14:44:43.902Z,88.91
2019-01-15T14:47:48.291Z,88.73
2019-01-15T14:50:33.505Z,88.39
2019-01-15T14:53:20.464Z,88.25
2019-01-15T14:56:24.116Z,88.11
2019-01-15T14:59:11.683Z,88.05
2019-01-15T15:02:04.991Z,88.03
2019-01-15T15:05:00.763Z,87.78
2019-01-15T15:07:53.133Z,87.75
2019-01-15T15:10:41.130Z,87.82
2019-01-15T15:13:33.307Z,87.80
2019-01-15T15:16:26.711Z,87.58
2019-01-15T15:19:15.892Z,87.40
2019-01-15T15:22:13.222Z,87.22
2019-01-15T15:25:00.849Z,87.33
2019-01-15T15:27:43.357Z,87.31
2019-01-15T15:30:34.077Z,87.33
2019-01-15T15:33:24.304Z,87.22
2019-01-15T15:36:14.141Z,87.30
2019-01-15T15:38:57.954Z,87.44
2019-01-15T15:41:45.653Z,87.36
2019-01-15T15:44:34.185Z,87.44
2019-01-15T15:47:24.022Z,87.50
2019-01-15T15:50:24.879Z,87.51
2019-01-15T15:53:12.960Z,87.34
2019-01-15T15:56:03.493Z,87.75
2019-01-15T15:58:51.570Z,87.61
2019-01-15T16:01:36.889Z,87.60
2019-01-15T16:04:25.921Z,87.79
2019-01-15T16:07:32.423Z,87.92
2019-01-15T16:10:29.707Z,87.90
2019-01-15T16:13:17.301Z,87.87
2019-01-15T16:16:03.980Z,87.89
2019-01-15T16:19:07.492Z,87.87
2019-01-15T16:22:00.290Z,87.81
2019-01-15T16:24:54.652Z,87.73
2019-01-15T16:27:41.082Z,87.51
2019-01-15T16:30:28.219Z,87.68
2019-01-15T16:33:23.876Z,87.66
2019-01-15T16:36:23.652Z,87.57
2019-01-15T16:39:12.165Z,87.26
2019-01-15T16:42:01.361Z,87.35
2019-01-15T16:44:44.802Z,87.08
2019-01-15T16:47:23.140Z,87.18
2019-01-15T16:50:02.930Z,86.95
2019-01-15T16:52:54.493Z,87.16
2019-01-15T16:55:43.723Z,87.12
2019-01-15T16:58:50.482Z,86.99
2019-01-15T17:01:47.443Z,87.13
2019-01-15T17:04:49.388Z,87.00
2019-01-15T17:07:38.386Z,87.02
2019-01-15T17:10:36.664Z,87.11
2019-01-15T17:13:28.073Z,87.02
2019-01-15T17:16:33.326Z,86.97
2019-01-15T17:19:29.052Z,86.87
2019-01-15T17:22:26.379Z,86.95
2019-01-15T17:25:22.004Z,86.89
2019-01-15T17:28:03.435Z,87.02
2019-01-15T17:31:10.058Z,86.94
2019-01-15T17:34:07.787Z,86.85
2019-01-15T17:37:12.883Z,86.55
2019-01-15T17:40:03.450Z,86.57
2019-01-15T17:43:02.420Z,86.51
2019-01-15T17:45:52.280Z,86.36
2019-01-15T17:48:56.740Z,86.19
2019-01-15T17:51:44.168Z,86.06
2019-01-15T17:54:48.837Z,86.12
2019-01-15T17:57:35.886Z,85.97
2019-01-15T18:00:25.190Z,86.17
2019-01-15T18:03:17.980Z,86.14
2019-01-15T18:06:12.405Z,85.87
2019-01-15T18:08:58.953Z,85.99
2019-01-15T18:12:02.915Z,85.85
2019-01-15T18:14:54.465Z,85.76
2019-01-15T18:17:49.509Z,85.83
2019-01-15T18:20:40.487Z,85.86
2019-01-15T18:23:39.088Z,85.92
2019-01-15T18:26:30.138Z,85.57
2019-01-15T18:29:18.734Z,85.85
2019-01-15T18:32:23.818Z,85.77
2019-01-15T18:35:16.366Z,85.90
2019-01-15T18:38:10.452Z,85.87
2019-01-15T18:41:06.074Z,85.71
2019-01-15T18:43:55.383Z,85.62
2019-01-15T18:46:45.309Z,85.69
2019-01-15T18:49:35.034Z,85.94
2019-01-15T18:52:24.432Z,85.90
2019-01-15T18:55:22.672Z,85.69
2019-01-15T18:58:31.110Z,85.82
2019-01-15T19:01:25.535Z,85.89
2019-01-15T19:04:15.152Z,85.86
2019-01-15T19:07:03.050Z,85.84
2019-01-15T19:10:01.363Z,85.98
2019-01-15T19:12:51.957Z,86.17
2019-01-15T19:15:43.945Z,86.36
2019-01-15T19:18:41.323Z,86.62
2019-01-15T19:21:50.951Z,86.69
2019-01-15T19:24:57.419Z,87.03
2019-01-15T19:28:06.077Z,87.18
2019-01-15T19:31:12.766Z,87.13
2019-01-15T19:34:04.142Z,87.00
2019-01-15T19:37:11.613Z,87.08
2019-01-15T19:40:10.307Z,87.01
2019-01-15T19:42:58.349Z,87.13
2019-01-15T19:45:56.937Z,87.08
2019-01-15T19:48:41.428Z,87.23
2019-01-15T19:51:38.673Z,87.43
2019-01-15T19:54:33.449Z,87.54
2019-01-15T19:57:17.431Z,87.67
2019-01-15T20:00:06.468Z,88.05
2019-01-15T20:02:55.646Z,88.23
2019-01-15T20:05:46.993Z,88.84
2019-01-15T20:08:37.264Z,89.31
2019-01-15T20:11:24.693Z,89.95
2019-01-15T20:14:22.040Z,90.21
2019-01-15T20:17:18.348Z,90.54
2019-01-15T20:20:02.778Z,90.62
2019-01-15T20:22:51.126Z,90.87
2019-01-15T20:25:36.305Z,90.64
2019-01-15T20:28:47.241Z,90.37
2019-01-15T20:31:36.636Z,90.52
2019-01-15T20:34:22.346Z,90.64
2019-01-15T20:37:09.984Z,90.76
2019-01-15T20:39:59.146Z,90.93
2019-01-15T20:43:03.291Z,91.04
2019-01-15T20:45:57.809Z,91.03
2019-01-15T20:48:49.398Z,90.54
2019-01-15T20:51:46.710Z,90.21
2019-01-15T20:54:32.176Z,89.75
2019-01-15T20:57:32.195Z,89.45
2019-01-15T21:00:19.629Z,88.97
2019-01-15T21:03:25.790Z,88.72
2019-01-15T21:06:30.318Z,88.53
2019-01-15T21:09:19.015Z,88.46
2019-01-15T21:12:11.823Z,88.41
2019-01-15T21:15:11.215Z,88.29
2019-01-15T21:18:02.888Z,88.11
2019-01-15T21:20:57.248Z,88.13
2019-01-15T21:23:46.232Z,87.75
2019-01-15T21:26:31.582Z,87.71
2019-01-15T21:29:46.269Z,87.62
2019-01-15T21:32:38.419Z,87.62
2019-01-15T21:35:27.173Z,87.77
2019-01-15T21:38:22.608Z,88.00
2019-01-15T21:41:30.291Z,88.16
2019-01-15T21:44:20.783Z,88.58
2019-01-15T21:47:09.774Z,88.73
2019-01-15T21:50:17.027Z,88.84
2019-01-15T21:53:03.854Z,88.80
2019-01-15T21:55:42.997Z,88.71
2019-01-15T21:58:29.246Z,88.08
2019-01-15T22:01:16.718Z,87.99
2019-01-15T22:04:14.598Z,87.89
2019-01-15T22:07:21.691Z,87.97
2019-01-15T22:10:11.668Z,87.87
2019-01-15T22:12:53.298Z,88.28
2019-01-15T22:15:41.231Z,88.59
2019-01-15T22:18:27.961Z,88.68
2019-01-15T22:21:25.837Z,88.48
2019-01-15T22:24:14.469Z,88.48
2019-01-15T22:27:04.563Z,88.31
2019-01-15T22:29:51.381Z,87.89
2019-01-15T22:32:46.826Z,87.88
2019-01-15T22:35:42.719Z,87.82
2019-01-15T22:38:40.897Z,87.71
2019-01-15T22:41:35.697Z,87.48
2019-01-15T22:44:24.773Z,87.45
2019-01-15T22:47:13.023Z,87.52
2019-01-15T22:50:02.413Z,87.25
2019-01-15T22:52:52.309Z,87.15
2019-01-15T22:55:34.014Z,87.05
2019-01-15T22:58:25.539Z,86.91
2019-01-15T23:01:15.841Z,87.13
2019-01-15T23:04:08.108Z,87.01
2019-01-15T23:06:59.546Z,87.00
2019-01-15T23:09:48.707Z,86.87
2019-01-15T23:12:38.088Z,87.15
2019-01-15T23:15:42.317Z,86.98
2019-01-15T23:18:46.045Z,87.03
2019-01-15T23:21:52.327Z,87.39
2019-01-15T23:24:57.452Z,87.27
2019-01-15T23:28:01.169Z,87.24
2019-01-15T23:30:48.759Z,87.31
2019-01-15T23:33:43.726Z,87.45
2019-01-15T23:36:24.397Z,87.61
2019-01-15T23:39:16.331Z,87.46
2019-01-15T23:42:00.237Z,87.62
2019-01-15T23:44:50.426Z,87.64
2019-01-15T23:47:47.887Z,87.57
2019-01-15T23:50:28.560Z,87.53
2019-01-15T23:53:20.292Z,87.70
2019-01-15T23:56:06.295Z,87.63
2019-01-15T23:58:54.951Z,87.74
